sensor_id;sensor_type;location;lat;lon;timestamp;P1;durP1;ratioP1;P2;durP2;ratioP2
18399;SDS011;9326;49.468;11.008;2023-02-15T00:01:29;20.03;;;12.60;;
18399;SDS011;9326;49.468;11.008;2023-02-15T00:03:56;21.37;;;14.13;;
18399;SDS011;9326;49.468;11.008;2023-02-15T00:06:23;23.63;;;15.47;;
18399;SDS011;9326;49.468;11.008;2023-02-15T00:08:50;23.27;;;15.07;;
18399;SDS011;9326;49.468;11.008;2023-02-15T00:11:18;22.80;;;13.50;;
18399;SDS011;9326;49.468;11.008;2023-02-15T00:14:04;19.47;;;14.03;;
18399;SDS011;9326;49.468;11.008;2023-02-15T00:16:33;18.10;;;12.17;;
18399;SDS011;9326;49.468;11.008;2023-02-15T00:19:00;20.50;;;14.43;;
18399;SDS011;9326;49.468;11.008;2023-02-15T00:21:27;20.77;;;14.13;;
18399;SDS011;9326;49.468;11.008;2023-02-15T00:23:54;19.47;;;14.10;;
18399;SDS011;9326;49.468;11.008;2023-02-15T00:26:21;18.37;;;13.10;;
18399;SDS011;9326;49.468;11.008;2023-02-15T00:28:48;18.93;;;12.30;;
18399;SDS011;9326;49.468;11.008;2023-02-15T00:31:15;18.20;;;12.37;;
18399;SDS011;9326;49.468;11.008;2023-02-15T00:33:44;21.60;;;14.90;;
18399;SDS011;9326;49.468;11.008;2023-02-15T00:36:11;20.40;;;14.70;;
18399;SDS011;9326;49.468;11.008;2023-02-15T00:38:38;20.67;;;14.23;;
18399;SDS011;9326;49.468;11.008;2023-02-15T00:41:06;18.70;;;12.40;;
18399;SDS011;9326;49.468;11.008;2023-02-15T00:43:34;16.53;;;12.73;;
18399;SDS011;9326;49.468;11.008;2023-02-15T00:46:01;18.07;;;13.80;;
18399;SDS011;9326;49.468;11.008;2023-02-15T00:48:28;16.83;;;11.20;;
18399;SDS011;9326;49.468;11.008;2023-02-15T00:50:58;15.33;;;8.87;;
18399;SDS011;9326;49.468;11.008;2023-02-15T00:53:25;16.30;;;10.97;;
18399;SDS011;9326;49.468;11.008;2023-02-15T00:55:53;17.90;;;11.77;;
18399;SDS011;9326;49.468;11.008;2023-02-15T00:58:20;18.00;;;12.50;;
18399;SDS011;9326;49.468;11.008;2023-02-15T06:01:08;17.33;;;11.03;;
18399;SDS011;9326;49.468;11.008;2023-02-15T06:03:35;17.93;;;12.20;;
18399;SDS011;9326;49.468;11.008;2023-02-15T06:06:02;17.67;;;11.20;;
18399;SDS011;9326;49.468;11.008;2023-02-15T06:08:29;16.20;;;10.23;;
18399;SDS011;9326;49.468;11.008;2023-02-15T06:10:56;17.97;;;12.57;;
18399;SDS011;9326;49.468;11.008;2023-02-15T06:13:23;16.43;;;11.07;;
18399;SDS011;9326;49.468;11.008;2023-02-15T06:15:50;19.27;;;12.47;;
18399;SDS011;9326;49.468;11.008;2023-02-15T06:18:19;16.90;;;10.80;;
18399;SDS011;9326;49.468;11.008;2023-02-15T06:20:46;16.13;;;10.03;;
18399;SDS011;9326;49.468;11.008;2023-02-15T06:23:13;18.10;;;12.00;;
18399;SDS011;9326;49.468;11.008;2023-02-15T06:25:40;16.97;;;10.40;;
18399;SDS011;9326;49.468;11.008;2023-02-15T06:28:07;18.03;;;11.80;;
18399;SDS011;9326;49.468;11.008;2023-02-15T06:30:34;20.23;;;13.30;;
18399;SDS011;9326;49.468;11.008;2023-02-15T06:33:01;20.90;;;13.33;;
18399;SDS011;9326;49.468;11.008;2023-02-15T06:35:30;17.57;;;10.53;;
18399;SDS011;9326;49.468;11.008;2023-02-15T06:37:57;19.43;;;12.13;;
18399;SDS011;9326;49.468;11.008;2023-02-15T06:40:24;19.27;;;11.50;;
18399;SDS011;9326;49.468;11.008;2023-02-15T06:42:51;18.67;;;12.57;;
18399;SDS011;9326;49.468;11.008;2023-02-15T06:45:18;17.47;;;11.23;;
18399;SDS011;9326;49.468;11.008;2023-02-15T06:47:45;20.97;;;13.70;;
18399;SDS011;9326;49.468;11.008;2023-02-15T06:50:12;19.30;;;11.63;;
18399;SDS011;9326;49.468;11.008;2023-02-15T06:52:40;18.30;;;11.60;;
18399;SDS011;9326;49.468;11.008;2023-02-15T06:55:07;21.03;;;12.30;;
18399;SDS011;9326;49.468;11.008;2023-02-15T06:57:34;18.40;;;12.00;;
18399;SDS011;9326;49.468;11.008;2023-02-15T07:00:02;22.13;;;14.47;;
18399;SDS011;9326;49.468;11.008;2023-02-15T07:02:29;17.97;;;11.87;;
18399;SDS011;9326;49.468;11.008;2023-02-15T07:04:57;19.40;;;11.40;;
18399;SDS011;9326;49.468;11.008;2023-02-15T07:07:24;20.57;;;13.80;;
18399;SDS011;9326;49.468;11.008;2023-02-15T07:09:52;21.00;;;12.70;;
18399;SDS011;9326;49.468;11.008;2023-02-15T07:12:19;20.33;;;13.30;;
18399;SDS011;9326;49.468;11.008;2023-02-15T07:15:07;19.40;;;11.57;;
18399;SDS011;9326;49.468;11.008;2023-02-15T07:17:34;19.73;;;12.57;;
18399;SDS011;9326;49.468;11.008;2023-02-15T07:20:01;18.13;;;12.57;;
18399;SDS011;9326;49.468;11.008;2023-02-15T07:22:28;21.23;;;11.03;;
18399;SDS011;9326;49.468;11.008;2023-02-15T07:24:57;19.43;;;12.00;;
18399;SDS011;9326;49.468;11.008;2023-02-15T07:27:24;19.73;;;12.40;;
18399;SDS011;9326;49.468;11.008;2023-02-15T07:29:51;21.10;;;12.90;;
18399;SDS011;9326;49.468;11.008;2023-02-15T07:32:18;17.70;;;11.87;;
18399;SDS011;9326;49.468;11.008;2023-02-15T07:34:45;18.60;;;11.57;;
18399;SDS011;9326;49.468;11.008;2023-02-15T07:37:12;16.27;;;9.07;;
18399;SDS011;9326;49.468;11.008;2023-02-15T07:39:39;18.37;;;12.23;;
18399;SDS011;9326;49.468;11.008;2023-02-15T07:42:07;18.17;;;10.60;;
18399;SDS011;9326;49.468;11.008;2023-02-15T07:44:34;22.03;;;11.63;;
18399;SDS011;9326;49.468;11.008;2023-02-15T07:47:01;16.73;;;10.90;;
18399;SDS011;9326;49.468;11.008;2023-02-15T07:49:28;18.53;;;10.23;;
18399;SDS011;9326;49.468;11.008;2023-02-15T07:51:55;16.57;;;10.27;;
18399;SDS011;9326;49.468;11.008;2023-02-15T07:54:22;18.63;;;11.20;;
18399;SDS011;9326;49.468;11.008;2023-02-15T07:56:49;19.17;;;11.77;;
18399;SDS011;9326;49.468;11.008;2023-02-15T07:59:18;18.67;;;12.47;;
18399;SDS011;9326;49.468;11.008;2023-02-15T08:01:45;21.13;;;12.90;;
18399;SDS011;9326;49.468;11.008;2023-02-15T08:04:12;17.40;;;11.37;;
18399;SDS011;9326;49.468;11.008;2023-02-15T08:06:39;19.80;;;13.00;;
18399;SDS011;9326;49.468;11.008;2023-02-15T08:09:07;16.63;;;11.90;;
18399;SDS011;9326;49.468;11.008;2023-02-15T08:11:36;19.17;;;10.87;;
18399;SDS011;9326;49.468;11.008;2023-02-15T08:14:05;15.90;;;10.20;;
18399;SDS011;9326;49.468;11.008;2023-02-15T08:16:34;17.50;;;10.73;;
18399;SDS011;9326;49.468;11.008;2023-02-15T08:19:02;18.80;;;12.23;;
18399;SDS011;9326;49.468;11.008;2023-02-15T08:21:30;17.57;;;11.90;;
18399;SDS011;9326;49.468;11.008;2023-02-15T08:23:58;18.20;;;12.03;;
18399;SDS011;9326;49.468;11.008;2023-02-15T08:26:25;19.20;;;12.47;;
18399;SDS011;9326;49.468;11.008;2023-02-15T08:28:52;22.40;;;13.03;;
18399;SDS011;9326;49.468;11.008;2023-02-15T08:31:20;19.30;;;11.00;;
18399;SDS011;9326;49.468;11.008;2023-02-15T08:33:50;16.60;;;11.87;;
18399;SDS011;9326;49.468;11.008;2023-02-15T08:36:17;17.13;;;11.60;;
18399;SDS011;9326;49.468;11.008;2023-02-15T08:38:45;19.77;;;12.47;;
18399;SDS011;9326;49.468;11.008;2023-02-15T08:41:13;20.50;;;12.83;;
18399;SDS011;9326;49.468;11.008;2023-02-15T08:43:40;15.40;;;10.07;;
18399;SDS011;9326;49.468;11.008;2023-02-15T08:46:08;15.97;;;10.00;;
18399;SDS011;9326;49.468;11.008;2023-02-15T08:48:35;17.30;;;12.07;;
18399;SDS011;9326;49.468;11.008;2023-02-15T08:51:08;17.93;;;12.53;;
18399;SDS011;9326;49.468;11.008;2023-02-15T08:53:36;16.70;;;10.70;;
18399;SDS011;9326;49.468;11.008;2023-02-15T08:56:03;19.80;;;12.83;;
18399;SDS011;9326;49.468;11.008;2023-02-15T08:58:30;18.40;;;12.33;;
18399;SDS011;9326;49.468;11.008;2023-02-15T09:00:57;17.13;;;11.47;;
18399;SDS011;9326;49.468;11.008;2023-02-15T09:03:26;17.97;;;10.33;;
18399;SDS011;9326;49.468;11.008;2023-02-15T09:05:56;21.90;;;13.47;;
18399;SDS011;9326;49.468;11.008;2023-02-15T09:08:25;21.23;;;13.47;;
18399;SDS011;9326;49.468;11.008;2023-02-15T09:10:52;24.73;;;16.07;;
18399;SDS011;9326;49.468;11.008;2023-02-15T09:13:19;19.40;;;13.83;;
18399;SDS011;9326;49.468;11.008;2023-02-15T09:15:47;20.97;;;12.67;;
18399;SDS011;9326;49.468;11.008;2023-02-15T09:18:14;27.50;;;15.87;;
18399;SDS011;9326;49.468;11.008;2023-02-15T09:20:42;54.23;;;25.50;;
18399;SDS011;9326;49.468;11.008;2023-02-15T09:23:09;22.57;;;13.73;;
18399;SDS011;9326;49.468;11.008;2023-02-15T09:25:37;23.07;;;15.13;;
18399;SDS011;9326;49.468;11.008;2023-02-15T09:28:04;28.47;;;17.83;;
18399;SDS011;9326;49.468;11.008;2023-02-15T09:30:31;22.53;;;15.23;;
18399;SDS011;9326;49.468;11.008;2023-02-15T09:32:59;18.53;;;11.13;;
18399;SDS011;9326;49.468;11.008;2023-02-15T09:35:26;17.63;;;10.87;;
18399;SDS011;9326;49.468;11.008;2023-02-15T09:37:53;20.03;;;13.37;;
18399;SDS011;9326;49.468;11.008;2023-02-15T09:40:20;18.13;;;11.83;;
18399;SDS011;9326;49.468;11.008;2023-02-15T09:43:08;22.43;;;14.77;;
18399;SDS011;9326;49.468;11.008;2023-02-15T09:48:26;20.37;;;13.37;;
18399;SDS011;9326;49.468;11.008;2023-02-15T09:51:02;20.63;;;12.80;;
18399;SDS011;9326;49.468;11.008;2023-02-15T09:53:36;21.20;;;14.80;;
18399;SDS011;9326;49.468;11.008;2023-02-15T09:56:06;21.60;;;14.67;;
18399;SDS011;9326;49.468;11.008;2023-02-15T09:58:39;24.40;;;14.70;;
18399;SDS011;9326;49.468;11.008;2023-02-15T10:01:10;19.93;;;13.33;;
18399;SDS011;9326;49.468;11.008;2023-02-15T10:03:42;18.83;;;13.57;;
18399;SDS011;9326;49.468;11.008;2023-02-15T10:06:28;22.70;;;14.67;;
18399;SDS011;9326;49.468;11.008;2023-02-15T10:09:02;17.33;;;10.93;;
18399;SDS011;9326;49.468;11.008;2023-02-15T10:11:33;33.43;;;17.07;;
18399;SDS011;9326;49.468;11.008;2023-02-15T10:14:15;36.50;;;20.67;;
18399;SDS011;9326;49.468;11.008;2023-02-15T10:16:49;22.70;;;14.37;;
18399;SDS011;9326;49.468;11.008;2023-02-15T10:19:23;20.17;;;13.17;;
18399;SDS011;9326;49.468;11.008;2023-02-15T10:21:55;18.90;;;13.20;;
18399;SDS011;9326;49.468;11.008;2023-02-15T10:27:11;18.17;;;12.27;;
18399;SDS011;9326;49.468;11.008;2023-02-15T10:29:41;16.27;;;11.23;;
18399;SDS011;9326;49.468;11.008;2023-02-15T10:32:14;19.37;;;12.47;;
18399;SDS011;9326;49.468;11.008;2023-02-15T10:34:43;18.07;;;12.43;;
18399;SDS011;9326;49.468;11.008;2023-02-15T10:37:37;19.73;;;13.87;;
18399;SDS011;9326;49.468;11.008;2023-02-15T10:40:10;19.83;;;13.80;;
18399;SDS011;9326;49.468;11.008;2023-02-15T10:42:45;18.03;;;13.77;;
18399;SDS011;9326;49.468;11.008;2023-02-15T10:45:20;21.83;;;14.60;;
18399;SDS011;9326;49.468;11.008;2023-02-15T10:47:54;20.27;;;13.23;;
18399;SDS011;9326;49.468;11.008;2023-02-15T10:50:26;17.90;;;12.60;;
18399;SDS011;9326;49.468;11.008;2023-02-15T10:52:57;16.53;;;11.43;;
18399;SDS011;9326;49.468;11.008;2023-02-15T10:55:29;17.20;;;11.33;;
18399;SDS011;9326;49.468;11.008;2023-02-15T10:58:05;17.53;;;11.40;;
18399;SDS011;9326;49.468;11.008;2023-02-15T11:00:37;18.73;;;12.53;;
18399;SDS011;9326;49.468;11.008;2023-02-15T11:03:25;16.47;;;11.97;;
18399;SDS011;9326;49.468;11.008;2023-02-15T11:05:59;28.73;;;16.00;;
18399;SDS011;9326;49.468;11.008;2023-02-15T11:08:27;17.80;;;11.10;;
18399;SDS011;9326;49.468;11.008;2023-02-15T11:10:57;21.43;;;14.47;;
18399;SDS011;9326;49.468;11.008;2023-02-15T11:13:26;18.93;;;13.80;;
18399;SDS011;9326;49.468;11.008;2023-02-15T11:15:57;19.20;;;12.80;;
18399;SDS011;9326;49.468;11.008;2023-02-15T11:18:28;20.57;;;13.47;;
18399;SDS011;9326;49.468;11.008;2023-02-15T11:20:59;20.57;;;13.57;;
18399;SDS011;9326;49.468;11.008;2023-02-15T11:23:28;18.00;;;11.97;;
18399;SDS011;9326;49.468;11.008;2023-02-15T11:25:56;18.73;;;13.67;;
18399;SDS011;9326;49.468;11.008;2023-02-15T11:28:25;22.23;;;15.43;;
18399;SDS011;9326;49.468;11.008;2023-02-15T11:30:54;21.33;;;13.60;;
18399;SDS011;9326;49.468;11.008;2023-02-15T11:33:24;23.60;;;16.10;;
18399;SDS011;9326;49.468;11.008;2023-02-15T11:35:53;22.17;;;15.43;;
18399;SDS011;9326;49.468;11.008;2023-02-15T11:38:23;29.70;;;17.57;;
18399;SDS011;9326;49.468;11.008;2023-02-15T11:40:52;25.87;;;17.30;;
18399;SDS011;9326;49.468;11.008;2023-02-15T11:43:23;42.00;;;22.97;;
18399;SDS011;9326;49.468;11.008;2023-02-15T11:45:52;21.70;;;14.47;;
18399;SDS011;9326;49.468;11.008;2023-02-15T11:48:20;20.13;;;13.30;;
18399;SDS011;9326;49.468;11.008;2023-02-15T11:50:48;23.70;;;18.60;;
18399;SDS011;9326;49.468;11.008;2023-02-15T11:53:16;25.30;;;18.90;;
18399;SDS011;9326;49.468;11.008;2023-02-15T11:55:46;16.83;;;13.83;;
18399;SDS011;9326;49.468;11.008;2023-02-15T11:58:16;20.53;;;14.70;;
18399;SDS011;9326;49.468;11.008;2023-02-15T12:00:49;20.47;;;13.53;;
18399;SDS011;9326;49.468;11.008;2023-02-15T12:03:17;18.67;;;14.17;;
18399;SDS011;9326;49.468;11.008;2023-02-15T12:05:47;27.07;;;20.27;;
18399;SDS011;9326;49.468;11.008;2023-02-15T12:08:18;18.17;;;13.47;;
18399;SDS011;9326;49.468;11.008;2023-02-15T12:10:51;24.17;;;17.13;;
18399;SDS011;9326;49.468;11.008;2023-02-15T12:13:20;22.10;;;15.23;;
18399;SDS011;9326;49.468;11.008;2023-02-15T12:15:47;23.43;;;16.57;;
18399;SDS011;9326;49.468;11.008;2023-02-15T12:18:17;20.73;;;14.57;;
18399;SDS011;9326;49.468;11.008;2023-02-15T12:20:46;24.67;;;19.50;;
18399;SDS011;9326;49.468;11.008;2023-02-15T12:23:14;20.77;;;15.30;;
18399;SDS011;9326;49.468;11.008;2023-02-15T12:25:43;20.47;;;14.93;;
18399;SDS011;9326;49.468;11.008;2023-02-15T12:28:22;22.20;;;16.27;;
18399;SDS011;9326;49.468;11.008;2023-02-15T12:30:50;21.80;;;15.47;;
18399;SDS011;9326;49.468;11.008;2023-02-15T12:33:21;26.00;;;17.43;;
18399;SDS011;9326;49.468;11.008;2023-02-15T12:35:54;26.07;;;17.60;;
18399;SDS011;9326;49.468;11.008;2023-02-15T12:38:24;20.63;;;15.70;;
18399;SDS011;9326;49.468;11.008;2023-02-15T12:40:58;23.93;;;16.63;;
18399;SDS011;9326;49.468;11.008;2023-02-15T12:43:26;25.17;;;17.03;;
18399;SDS011;9326;49.468;11.008;2023-02-15T12:45:53;23.30;;;16.20;;
18399;SDS011;9326;49.468;11.008;2023-02-15T12:48:29;22.70;;;16.73;;
18399;SDS011;9326;49.468;11.008;2023-02-15T12:50:56;25.83;;;18.60;;
18399;SDS011;9326;49.468;11.008;2023-02-15T12:53:34;25.40;;;17.20;;
18399;SDS011;9326;49.468;11.008;2023-02-15T12:56:05;24.83;;;16.90;;
18399;SDS011;9326;49.468;11.008;2023-02-15T12:58:33;24.83;;;17.67;;
18399;SDS011;9326;49.468;11.008;2023-02-15T13:01:02;24.80;;;17.27;;
18399;SDS011;9326;49.468;11.008;2023-02-15T13:03:29;24.53;;;16.97;;
18399;SDS011;9326;49.468;11.008;2023-02-15T13:05:56;26.30;;;18.07;;
18399;SDS011;9326;49.468;11.008;2023-02-15T13:08:27;26.47;;;18.13;;
18399;SDS011;9326;49.468;11.008;2023-02-15T13:10:55;24.97;;;17.27;;
18399;SDS011;9326;49.468;11.008;2023-02-15T13:13:25;26.20;;;18.73;;
18399;SDS011;9326;49.468;11.008;2023-02-15T13:15:54;26.43;;;18.23;;
18399;SDS011;9326;49.468;11.008;2023-02-15T13:18:26;28.77;;;18.33;;
18399;SDS011;9326;49.468;11.008;2023-02-15T13:20:55;29.83;;;19.77;;
18399;SDS011;9326;49.468;11.008;2023-02-15T13:23:24;25.57;;;18.47;;
18399;SDS011;9326;49.468;11.008;2023-02-15T13:25:53;27.73;;;18.17;;
18399;SDS011;9326;49.468;11.008;2023-02-15T13:28:22;30.70;;;20.23;;
18399;SDS011;9326;49.468;11.008;2023-02-15T13:30:51;56.73;;;31.87;;
18399;SDS011;9326;49.468;11.008;2023-02-15T13:33:21;47.20;;;26.93;;
18399;SDS011;9326;49.468;11.008;2023-02-15T13:35:54;228.93;;;83.10;;
18399;SDS011;9326;49.468;11.008;2023-02-15T13:38:29;62.40;;;38.20;;
18399;SDS011;9326;49.468;11.008;2023-02-15T13:41:03;38.03;;;24.83;;
18399;SDS011;9326;49.468;11.008;2023-02-15T13:43:34;38.60;;;28.30;;
18399;SDS011;9326;49.468;11.008;2023-02-15T13:46:07;29.13;;;20.50;;
18399;SDS011;9326;49.468;11.008;2023-02-15T13:48:39;29.43;;;21.30;;
18399;SDS011;9326;49.468;11.008;2023-02-15T13:51:10;27.53;;;19.10;;
18399;SDS011;9326;49.468;11.008;2023-02-15T13:53:43;29.67;;;19.03;;
18399;SDS011;9326;49.468;11.008;2023-02-15T13:56:15;30.23;;;22.50;;
18399;SDS011;9326;49.468;11.008;2023-02-15T13:58:52;25.03;;;19.90;;
18399;SDS011;9326;49.468;11.008;2023-02-15T14:01:27;29.20;;;19.87;;
18399;SDS011;9326;49.468;11.008;2023-02-15T14:09:26;26.37;;;18.50;;
18399;SDS011;9326;49.468;11.008;2023-02-15T14:11:57;29.47;;;19.13;;
18399;SDS011;9326;49.468;11.008;2023-02-15T14:14:41;27.83;;;19.50;;
18399;SDS011;9326;49.468;11.008;2023-02-15T14:17:14;28.27;;;19.77;;
18399;SDS011;9326;49.468;11.008;2023-02-15T14:19:46;29.50;;;20.00;;
18399;SDS011;9326;49.468;11.008;2023-02-15T14:22:18;28.80;;;20.17;;
18399;SDS011;9326;49.468;11.008;2023-02-15T14:24:50;26.77;;;19.80;;
18399;SDS011;9326;49.468;11.008;2023-02-15T14:27:23;28.10;;;19.97;;
18399;SDS011;9326;49.468;11.008;2023-02-15T14:29:53;29.10;;;20.70;;
18399;SDS011;9326;49.468;11.008;2023-02-15T14:32:25;30.37;;;20.47;;
18399;SDS011;9326;49.468;11.008;2023-02-15T14:34:54;44.57;;;32.00;;
18399;SDS011;9326;49.468;11.008;2023-02-15T14:37:24;41.20;;;28.90;;
18399;SDS011;9326;49.468;11.008;2023-02-15T14:39:55;28.40;;;22.70;;
18399;SDS011;9326;49.468;11.008;2023-02-15T14:42:43;30.50;;;22.03;;
18399;SDS011;9326;49.468;11.008;2023-02-15T14:45:15;32.03;;;21.50;;
18399;SDS011;9326;49.468;11.008;2023-02-15T14:47:46;28.00;;;20.97;;
18399;SDS011;9326;49.468;11.008;2023-02-15T14:53:23;34.50;;;21.53;;
18399;SDS011;9326;49.468;11.008;2023-02-15T14:58:33;29.03;;;20.10;;
18399;SDS011;9326;49.468;11.008;2023-02-15T15:01:03;27.97;;;20.53;;
18399;SDS011;9326;49.468;11.008;2023-02-15T15:03:32;26.90;;;20.03;;
18399;SDS011;9326;49.468;11.008;2023-02-15T15:06:00;29.20;;;20.90;;
18399;SDS011;9326;49.468;11.008;2023-02-15T15:08:29;27.77;;;20.87;;
18399;SDS011;9326;49.468;11.008;2023-02-15T15:10:59;30.47;;;20.70;;
18399;SDS011;9326;49.468;11.008;2023-02-15T15:13:52;29.33;;;20.87;;
18399;SDS011;9326;49.468;11.008;2023-02-15T15:16:24;31.20;;;21.73;;
18399;SDS011;9326;49.468;11.008;2023-02-15T15:18:53;29.93;;;20.97;;
18399;SDS011;9326;49.468;11.008;2023-02-15T15:24:02;30.13;;;21.87;;
18399;SDS011;9326;49.468;11.008;2023-02-15T15:26:30;29.90;;;20.73;;
18399;SDS011;9326;49.468;11.008;2023-02-15T15:29:02;29.93;;;20.63;;
18399;SDS011;9326;49.468;11.008;2023-02-15T15:31:37;30.27;;;21.80;;
18399;SDS011;9326;49.468;11.008;2023-02-15T15:39:56;29.67;;;21.33;;
18399;SDS011;9326;49.468;11.008;2023-02-15T15:42:31;32.00;;;22.13;;
18399;SDS011;9326;49.468;11.008;2023-02-15T15:45:02;31.33;;;22.50;;
18399;SDS011;9326;49.468;11.008;2023-02-15T15:47:42;30.40;;;22.37;;
18399;SDS011;9326;49.468;11.008;2023-02-15T15:50:13;30.93;;;22.07;;
18399;SDS011;9326;49.468;11.008;2023-02-15T15:52:41;33.53;;;22.90;;
18399;SDS011;9326;49.468;11.008;2023-02-15T15:55:15;32.83;;;23.00;;
18399;SDS011;9326;49.468;11.008;2023-02-15T15:57:44;31.63;;;22.63;;
18399;SDS011;9326;49.468;11.008;2023-02-15T16:00:23;33.70;;;22.57;;
18399;SDS011;9326;49.468;11.008;2023-02-15T16:02:51;31.83;;;23.57;;
18399;SDS011;9326;49.468;11.008;2023-02-15T16:05:18;33.37;;;23.90;;
18399;SDS011;9326;49.468;11.008;2023-02-15T16:07:45;32.50;;;23.63;;
18399;SDS011;9326;49.468;11.008;2023-02-15T16:10:21;34.50;;;23.73;;
18399;SDS011;9326;49.468;11.008;2023-02-15T16:12:49;36.37;;;22.67;;
18399;SDS011;9326;49.468;11.008;2023-02-15T16:15:17;33.63;;;22.80;;
18399;SDS011;9326;49.468;11.008;2023-02-15T16:17:45;32.67;;;22.70;;
18399;SDS011;9326;49.468;11.008;2023-02-15T16:20:14;32.23;;;23.27;;
18399;SDS011;9326;49.468;11.008;2023-02-15T16:22:43;32.77;;;22.90;;
18399;SDS011;9326;49.468;11.008;2023-02-15T16:25:32;35.20;;;22.67;;
18399;SDS011;9326;49.468;11.008;2023-02-15T16:28:05;32.10;;;22.40;;
18399;SDS011;9326;49.468;11.008;2023-02-15T16:30:33;33.10;;;21.70;;
18399;SDS011;9326;49.468;11.008;2023-02-15T16:33:05;32.93;;;22.83;;
18399;SDS011;9326;49.468;11.008;2023-02-15T16:35:32;33.77;;;23.00;;
18399;SDS011;9326;49.468;11.008;2023-02-15T16:38:00;32.30;;;22.97;;
18399;SDS011;9326;49.468;11.008;2023-02-15T16:40:30;35.13;;;23.83;;
18399;SDS011;9326;49.468;11.008;2023-02-15T16:43:02;36.23;;;23.90;;
18399;SDS011;9326;49.468;11.008;2023-02-15T16:45:30;32.43;;;23.70;;
18399;SDS011;9326;49.468;11.008;2023-02-15T16:47:58;32.77;;;23.90;;
18399;SDS011;9326;49.468;11.008;2023-02-15T16:50:28;35.60;;;25.30;;
18399;SDS011;9326;49.468;11.008;2023-02-15T16:52:56;36.43;;;24.70;;
18399;SDS011;9326;49.468;11.008;2023-02-15T16:55:24;36.13;;;23.80;;
18399;SDS011;9326;49.468;11.008;2023-02-15T16:57:51;34.80;;;24.43;;
18399;SDS011;9326;49.468;11.008;2023-02-15T17:00:24;36.53;;;23.30;;
18399;SDS011;9326;49.468;11.008;2023-02-15T17:02:58;41.10;;;26.47;;
18399;SDS011;9326;49.468;11.008;2023-02-15T17:05:28;34.97;;;23.57;;
18399;SDS011;9326;49.468;11.008;2023-02-15T17:08:10;35.93;;;23.97;;
18399;SDS011;9326;49.468;11.008;2023-02-15T17:10:40;40.03;;;24.03;;
18399;SDS011;9326;49.468;11.008;2023-02-15T17:13:09;36.90;;;24.00;;
18399;SDS011;9326;49.468;11.008;2023-02-15T17:15:38;40.50;;;25.73;;
18399;SDS011;9326;49.468;11.008;2023-02-15T17:18:08;41.20;;;26.03;;
18399;SDS011;9326;49.468;11.008;2023-02-15T17:20:37;38.40;;;25.40;;
18399;SDS011;9326;49.468;11.008;2023-02-15T17:23:06;38.17;;;25.40;;
18399;SDS011;9326;49.468;11.008;2023-02-15T17:25:35;40.90;;;26.60;;
18399;SDS011;9326;49.468;11.008;2023-02-15T17:28:03;41.23;;;25.57;;
18399;SDS011;9326;49.468;11.008;2023-02-15T17:30:32;35.70;;;22.73;;
18399;SDS011;9326;49.468;11.008;2023-02-15T17:33:01;38.27;;;26.03;;
18399;SDS011;9326;49.468;11.008;2023-02-15T17:35:29;38.93;;;26.00;;
18399;SDS011;9326;49.468;11.008;2023-02-15T17:38:04;38.50;;;26.50;;
18399;SDS011;9326;49.468;11.008;2023-02-15T17:40:32;39.07;;;24.87;;
18399;SDS011;9326;49.468;11.008;2023-02-15T17:42:59;36.50;;;24.80;;
18399;SDS011;9326;49.468;11.008;2023-02-15T17:45:30;38.33;;;24.93;;
18399;SDS011;9326;49.468;11.008;2023-02-15T17:47:57;36.37;;;22.53;;
18399;SDS011;9326;49.468;11.008;2023-02-15T17:50:26;39.03;;;25.17;;
18399;SDS011;9326;49.468;11.008;2023-02-15T17:52:54;37.10;;;23.90;;
18399;SDS011;9326;49.468;11.008;2023-02-15T17:55:22;39.83;;;25.03;;
18399;SDS011;9326;49.468;11.008;2023-02-15T17:58:04;44.57;;;27.80;;
18399;SDS011;9326;49.468;11.008;2023-02-15T18:00:33;40.90;;;27.50;;
18399;SDS011;9326;49.468;11.008;2023-02-15T18:03:18;39.43;;;24.23;;
18399;SDS011;9326;49.468;11.008;2023-02-15T18:06:05;37.30;;;25.00;;
18399;SDS011;9326;49.468;11.008;2023-02-15T18:08:50;39.30;;;25.73;;
18399;SDS011;9326;49.468;11.008;2023-02-15T18:11:34;45.97;;;27.43;;
18399;SDS011;9326;49.468;11.008;2023-02-15T18:14:02;47.63;;;29.83;;
18399;SDS011;9326;49.468;11.008;2023-02-15T18:16:30;44.80;;;28.53;;
18399;SDS011;9326;49.468;11.008;2023-02-15T18:18:58;41.80;;;24.50;;
18399;SDS011;9326;49.468;11.008;2023-02-15T18:21:27;40.00;;;26.50;;
18399;SDS011;9326;49.468;11.008;2023-02-15T18:23:56;45.87;;;29.20;;
18399;SDS011;9326;49.468;11.008;2023-02-15T18:26:23;36.97;;;23.90;;
18399;SDS011;9326;49.468;11.008;2023-02-15T18:28:51;40.13;;;25.77;;
18399;SDS011;9326;49.468;11.008;2023-02-15T18:31:18;40.67;;;23.00;;
18399;SDS011;9326;49.468;11.008;2023-02-15T18:33:46;42.73;;;24.40;;
18399;SDS011;9326;49.468;11.008;2023-02-15T18:36:16;47.67;;;28.37;;
18399;SDS011;9326;49.468;11.008;2023-02-15T18:38:46;46.30;;;27.93;;
18399;SDS011;9326;49.468;11.008;2023-02-15T18:41:15;50.33;;;29.80;;
18399;SDS011;9326;49.468;11.008;2023-02-15T18:43:42;46.97;;;29.00;;
18399;SDS011;9326;49.468;11.008;2023-02-15T18:46:10;44.20;;;23.83;;
18399;SDS011;9326;49.468;11.008;2023-02-15T18:48:37;47.63;;;26.37;;
18399;SDS011;9326;49.468;11.008;2023-02-15T18:51:04;51.10;;;30.67;;
18399;SDS011;9326;49.468;11.008;2023-02-15T18:53:36;48.60;;;27.00;;
18399;SDS011;9326;49.468;11.008;2023-02-15T18:56:04;50.47;;;31.07;;
18399;SDS011;9326;49.468;11.008;2023-02-15T18:58:31;49.77;;;30.67;;
18399;SDS011;9326;49.468;11.008;2023-02-15T19:00:58;52.97;;;30.57;;
18399;SDS011;9326;49.468;11.008;2023-02-15T19:03:26;55.87;;;31.80;;
18399;SDS011;9326;49.468;11.008;2023-02-15T19:05:53;54.57;;;33.80;;
18399;SDS011;9326;49.468;11.008;2023-02-15T19:08:21;46.23;;;29.20;;
18399;SDS011;9326;49.468;11.008;2023-02-15T19:10:49;44.90;;;25.57;;
18399;SDS011;9326;49.468;11.008;2023-02-15T19:13:17;49.40;;;29.00;;
18399;SDS011;9326;49.468;11.008;2023-02-15T19:15:44;48.80;;;29.20;;
18399;SDS011;9326;49.468;11.008;2023-02-15T19:18:11;55.07;;;29.97;;
18399;SDS011;9326;49.468;11.008;2023-02-15T19:20:40;49.43;;;28.07;;
18399;SDS011;9326;49.468;11.008;2023-02-15T19:23:10;49.97;;;31.10;;
18399;SDS011;9326;49.468;11.008;2023-02-15T19:25:39;42.43;;;24.50;;
18399;SDS011;9326;49.468;11.008;2023-02-15T19:28:10;66.53;;;37.40;;
18399;SDS011;9326;49.468;11.008;2023-02-15T19:30:41;87.57;;;47.43;;
18399;SDS011;9326;49.468;11.008;2023-02-15T19:33:12;64.60;;;37.90;;
18399;SDS011;9326;49.468;11.008;2023-02-15T19:35:41;47.83;;;28.10;;
18399;SDS011;9326;49.468;11.008;2023-02-15T19:38:10;51.33;;;28.10;;
18399;SDS011;9326;49.468;11.008;2023-02-15T19:40:40;50.67;;;28.63;;
18399;SDS011;9326;49.468;11.008;2023-02-15T19:43:09;50.43;;;28.40;;
18399;SDS011;9326;49.468;11.008;2023-02-15T19:45:40;52.30;;;30.50;;
18399;SDS011;9326;49.468;11.008;2023-02-15T19:48:08;57.87;;;32.47;;
18399;SDS011;9326;49.468;11.008;2023-02-15T19:50:35;46.93;;;29.20;;
18399;SDS011;9326;49.468;11.008;2023-02-15T19:53:02;54.53;;;33.97;;
18399;SDS011;9326;49.468;11.008;2023-02-15T19:55:29;51.97;;;31.40;;
18399;SDS011;9326;49.468;11.008;2023-02-15T19:57:57;49.33;;;28.70;;
18399;SDS011;9326;49.468;11.008;2023-02-15T20:00:25;49.27;;;30.23;;
18399;SDS011;9326;49.468;11.008;2023-02-15T20:02:54;49.43;;;28.87;;